Latest Weather Observations for Argyle

IDD60801

Issued at 7:11 pm CST Sunday 19 August 2018 (issued every 10 minutes, with the page automatically refreshed every 10 minutes)

About weather observations | Map of weather stations | Latest weather observations for NT | Other Formats
Station Details ID: 002064 Name: ARGYLE AERODROME Lat: -16.64 Lon: 128.45 Height: 164.0 m
Data from the previous 72 hours. | See also: Recent months at Argyle
Date/Time
CST
Temp
°C
App
Temp
°C
Dew
Point
°C
Rel
Hum
%
Delta-T
°C
Wind Press
QNH
hPa
Press
MSL
hPa
Rain since
9am
mm
Dir  Spd
km/h
Gust
km/h
Spd
kts
Gust
kts
19/07:00pm 28.2 23.1 -5.0 11 14.4 ESE 13 19 7 10 1016.5 1015.7 0.0
19/06:30pm 30.3 24.9 -4.7 10 15.5 ESE 15 24 8 13 1016.0 1015.2 0.0
19/06:00pm 31.4 25.7 -3.8 10 16.0 ESE 17 26 9 14 1015.6 1014.8 0.0
19/05:30pm 32.2 26.6 -3.2 10 16.4 E 17 28 9 15 1015.4 1014.6 0.0
19/05:00pm 32.5 26.3 -3.0 10 16.5 E 20 35 11 19 1015.2 1014.4 0.0
19/04:30pm 32.6 27.0 -2.9 10 16.5 E 17 28 9 15 1015.1 1014.3 0.0
19/04:00pm 32.3 26.3 -1.9 11 16.2 E 20 32 11 17 1015.5 1014.7 0.0
19/03:30pm 32.5 26.1 -1.7 11 16.3 E 22 35 12 19 1015.6 1014.8 0.0
19/03:00pm 33.0 26.8 -0.2 12 16.2 ESE 22 33 12 18 1015.8 1015.0 0.0
19/02:30pm 32.0 25.9 -2.1 11 16.0 E 20 39 11 21 1016.2 1015.4 0.0
19/02:00pm 32.5 26.5 -1.7 11 16.3 E 20 35 11 19 1016.7 1015.9 0.0
19/01:42pm 32.7 25.8 -2.9 10 16.6 E 24 46 13 25 1016.9 1016.1 0.0
19/01:30pm 32.1 24.7 -3.3 10 16.3 E 26 44 14 24 1017.1 1016.4 0.0
19/01:00pm 31.6 24.4 -5.1 9 16.4 E 24 39 13 21 1017.6 1016.9 0.0
19/12:30pm 31.5 23.6 -5.2 9 16.3 ENE 28 43 15 23 1017.9 1017.2 0.0
19/12:00pm 30.7 24.4 -4.4 10 15.7 ESE 20 35 11 19 1018.2 1017.5 0.0
19/11:30am 29.0 23.1 -5.7 10 15.0 ESE 17 24 9 13 1018.9 1018.1 0.0
19/11:00am 27.9 22.0 -5.2 11 14.3 ESE 17 32 9 17 1019.2 1018.4 0.0
19/10:30am 27.2 22.4 -5.8 11 14.0 ESE 11 15 6 8 1019.4 1018.6 0.0
19/10:00am 26.4 21.2 -6.4 11 13.7 SSE 13 20 7 11 1019.3 1018.5 0.0
19/09:30am 25.7 20.3 -8.2 10 13.5 SE 13 20 7 11 1019.2 1018.4 0.0
19/09:00am 24.6 19.9 -9.0 10 13.1 SSE 9 11 5 6 1019.1 1018.3 0.0
19/08:30am 23.3 19.6 -8.8 11 12.4 S 4 7 2 4 1018.8 1018.0 0.0
19/08:00am 20.5 16.1 -9.8 12 11.1 SSW 7 9 4 5 1018.4 1017.6 0.0
19/07:30am 19.1 15.7 -9.0 14 10.3 E 2 6 1 3 1018.0 1017.3 0.0
19/07:00am 19.2 16.2 -8.9 14 10.4 CALM 0 0 0 0 1017.4 1016.7 0.0
19/06:30am 19.3 15.1 -9.8 13 10.5 NW 6 7 3 4 1017.0 1016.3 0.0
19/06:00am 20.0 15.3 -9.2 13 10.8 NW 9 11 5 6 1016.6 1015.8 0.0
19/05:30am 19.1 14.4 -9.0 14 10.3 NW 9 11 5 6 1016.1 1015.3 0.0
19/05:00am 18.8 14.2 -8.3 15 10.1 WNW 9 11 5 6 1015.9 1015.1 0.0
19/04:30am 18.5 14.0 -7.0 17 9.7 W 9 11 5 6 1015.9 1015.1 0.0
19/04:00am 18.4 15.6 -7.1 17 9.7 CALM 0 0 0 0 1016.1 1015.3 0.0
19/03:30am 18.2 14.7 -6.5 18 9.5 NW 4 7 2 4 1016.1 1015.3 0.0
19/03:00am 19.7 15.8 -6.8 16 10.3 E 6 11 3 6 1016.0 1015.2 0.0
19/02:30am 19.2 16.1 -5.7 18 9.8 E 2 9 1 5 1016.1 1015.3 0.0
19/02:00am 20.1 15.3 -6.5 16 10.4 E 11 13 6 7 1016.3 1015.5 0.0
19/01:30am 21.0 15.8 -5.7 16 10.7 E 13 15 7 8 1016.3 1015.5 0.0
19/01:00am 21.2 16.5 -4.8 17 10.6 E 11 13 6 7 1016.3 1015.5 0.0
19/12:30am 21.3 16.6 -4.7 17 10.7 E 11 13 6 7 1016.5 1015.7 0.0
19/12:00am 21.9 17.3 -4.2 17 10.9 ESE 11 13 6 7 1016.4 1015.6 0.0
 
Date/Time
CST
Temp
°C
App
Temp
°C
Dew
Point
°C
Rel
Hum
%
Delta-T
°C
Wind Press
QNH
hPa
Press
MSL
hPa
Rain since
9am
mm
Dir  Spd
km/h
Gust
km/h
Spd
kts
Gust
kts
18/11:30pm 22.0 17.8 -4.1 17 10.9 ESE 9 11 5 6 1016.4 1015.6 0.0
18/11:00pm 22.8 18.6 -4.3 16 11.4 ESE 9 11 5 6 1016.2 1015.4 0.0
18/10:30pm 23.7 19.2 -3.6 16 11.7 E 11 13 6 7 1016.2 1015.4 0.0
18/10:00pm 23.7 19.5 -3.6 16 11.7 E 9 11 5 6 1015.8 1015.0 0.0
18/09:30pm 24.3 20.6 -3.1 16 11.9 ESE 7 9 4 5 1015.7 1014.9 0.0
18/09:00pm 24.9 21.1 -3.5 15 12.3 SE 7 9 4 5 1015.3 1014.5 0.0
18/08:30pm 26.2 22.1 -3.4 14 13.0 SE 9 9 5 5 1014.9 1014.1 0.0
18/08:00pm 26.8 22.6 -3.9 13 13.4 SE 9 11 5 6 1014.6 1013.8 0.0
18/07:30pm 27.9 23.8 -3.0 13 13.9 SE 9 11 5 6 1014.2 1013.4 0.0
18/07:00pm 28.5 24.7 -3.6 12 14.3 E 7 9 4 5 1013.8 1013.0 0.0
18/06:30pm 30.8 26.3 -3.0 11 15.5 E 11 13 6 7 1013.4 1012.6 0.0
18/06:00pm 32.1 26.5 -3.3 10 16.3 E 17 24 9 13 1013.3 1012.5 0.0
18/05:30pm 32.7 27.5 -2.9 10 16.6 E 15 20 8 11 1013.1 1012.3 0.0
18/05:00pm 33.0 27.8 -2.6 10 16.7 E 15 26 8 14 1012.9 1012.1 0.0
18/04:30pm 33.3 28.1 -2.4 10 16.9 E 15 26 8 14 1012.8 1012.0 0.0
18/04:00pm 33.5 28.0 -2.3 10 17.0 E 17 26 9 14 1013.0 1012.2 0.0
18/03:30pm 33.1 28.7 -2.6 10 16.8 ESE 11 20 6 11 1013.2 1012.4 0.0
18/03:00pm 33.1 27.0 -2.6 10 16.8 ESE 20 30 11 16 1013.5 1012.7 0.0
18/02:30pm 32.3 26.7 -3.2 10 16.4 E 17 35 9 19 1013.9 1013.1 0.0
18/02:00pm 33.4 29.0 -2.3 10 16.9 ESE 11 20 6 11 1014.2 1013.4 0.0
18/01:30pm 32.0 26.3 -3.4 10 16.3 ESE 17 26 9 14 1014.7 1013.9 0.0
18/01:00pm 32.4 26.6 -1.8 11 16.2 ENE 19 32 10 17 1015.4 1014.6 0.0
18/12:30pm 30.4 24.4 -3.3 11 15.3 E 19 35 10 19 1016.1 1015.3 0.0
18/12:00pm 30.1 24.9 -2.4 12 15.0 ENE 15 24 8 13 1016.7 1015.9 0.0
18/11:30am 29.3 23.7 -3.0 12 14.6 E 17 24 9 13 1017.3 1016.6 0.0
18/11:00am 28.9 22.9 -3.3 12 14.5 ESE 19 28 10 15 1017.6 1016.9 0.0
18/10:30am 28.2 22.6 -2.8 13 14.0 ENE 17 26 9 14 1017.8 1017.1 0.0
18/10:00am 26.3 22.3 -2.4 15 12.9 ESE 9 13 5 7 1017.8 1017.1 0.0
18/09:30am 25.8 21.5 -1.9 16 12.5 SE 11 17 6 9 1017.6 1016.9 0.0
18/09:00am 24.6 20.7 -1.3 18 11.7 E 9 11 5 6 1017.2 1016.5 0.0
18/08:30am 22.7 19.2 -1.4 20 10.7 E 7 9 4 5 1016.8 1016.0 0.0
18/08:00am 20.4 18.3 -0.8 24 9.3 CALM 0 0 0 0 1016.5 1015.7 0.0
18/07:30am 18.8 15.5 -1.1 26 8.6 WSW 6 7 3 4 1016.1 1015.3 0.0
18/07:00am 17.2 14.1 -0.1 31 7.5 W 6 9 3 5 1015.8 1015.0 0.0
18/06:30am 17.3 15.2 -0.9 29 7.8 CALM 0 0 0 0 1015.4 1014.6 0.0
18/06:00am 18.4 15.0 -2.0 25 8.6 SE 6 9 3 5 1015.1 1014.3 0.0
18/05:30am 17.5 13.6 -1.7 27 8.1 ESE 9 13 5 7 1015.0 1014.2 0.0
18/05:00am 19.0 15.7 -0.9 26 8.6 W 6 7 3 4 1014.7 1013.9 0.0
18/04:30am 19.2 16.0 -0.7 26 8.7 W 6 7 3 4 1014.4 1013.6 0.0
18/04:00am 20.2 18.1 -1.0 24 9.3 CALM 0 0 0 0 1014.2 1013.4 0.0
18/03:30am 21.4 17.6 -0.6 23 9.8 N 9 9 5 5 1014.3 1013.5 0.0
18/03:00am 22.1 18.6 -1.2 21 10.3 N 7 9 4 5 1014.3 1013.5 0.0
18/02:30am 19.2 15.4 -0.7 26 8.7 NNW 9 11 5 6 1014.4 1013.6 0.0
18/02:00am 20.0 16.6 -0.6 25 9.1 SE 7 9 4 5 1014.4 1013.6 0.0
18/01:30am 19.1 15.3 -0.8 26 8.6 ESE 9 11 5 6 1014.6 1013.8 0.0
18/01:00am 21.2 18.9 0.4 25 9.4 SSW 2 9 1 5 1014.6 1013.8 0.0
18/12:30am 21.4 18.1 0.0 24 9.6 SW 7 9 4 5 1014.6 1013.8 0.0
18/12:00am 23.3 20.4 1.6 24 10.2 SE 6 7 3 4 1014.8 1014.0 0.0
 
Date/Time
CST
Temp
°C
App
Temp
°C
Dew
Point
°C
Rel
Hum
%
Delta-T
°C
Wind Press
QNH
hPa
Press
MSL
hPa
Rain since
9am
mm
Dir  Spd
km/h
Gust
km/h
Spd
kts
Gust
kts
17/11:30pm 22.0 20.2 1.1 25 9.7 CALM 0 0 0 0 1014.7 1013.9 0.0
17/11:00pm 23.6 22.0 2.4 25 10.2 CALM 0 0 0 0 1014.6 1013.8 0.0
17/10:30pm 23.0 19.4 0.8 23 10.3 WSW 9 11 5 6 1014.6 1013.8 0.0
17/10:00pm 25.4 22.5 1.5 21 11.4 SSW 6 7 3 4 1014.5 1013.7 0.0
17/09:30pm 25.9 23.0 1.2 20 11.8 SW 6 7 3 4 1014.4 1013.6 0.0
17/09:00pm 26.0 22.6 2.0 21 11.6 SSW 9 13 5 7 1014.1 1013.3 0.0
17/08:30pm 24.8 21.7 0.3 20 11.4 WNW 6 11 3 6 1013.7 1012.9 0.0
17/08:00pm 26.3 23.1 0.9 19 12.1 NE 7 7 4 4 1013.1 1012.3 0.0
17/07:30pm 27.5 24.0 1.1 18 12.7 NNE 9 9 5 5 1012.5 1011.7 0.0
17/07:00pm 28.3 24.7 0.9 17 13.2 NNE 9 11 5 6 1012.1 1011.3 0.0
17/06:30pm 29.6 26.1 1.1 16 13.9 NNE 9 13 5 7 1011.7 1011.0 0.0
17/06:00pm 30.8 27.7 1.2 15 14.6 NE 7 9 4 5 1011.4 1010.6 0.0
17/05:30pm 30.9 27.0 1.3 15 14.7 NNE 11 17 6 9 1011.3 1010.5 0.0
17/05:00pm 31.7 27.5 1.9 15 15.0 E 13 20 7 11 1010.9 1010.1 0.0
17/04:30pm 32.0 28.1 1.2 14 15.3 N 11 20 6 11 1010.6 1009.8 0.0
17/04:00pm 31.6 27.3 0.9 14 15.2 NE 13 24 7 13 1010.7 1009.9 0.0
17/03:30pm 31.4 28.0 -0.3 13 15.3 SW 7 20 4 11 1011.0 1010.2 0.0
17/03:00pm 31.4 27.3 -0.3 13 15.3 ESE 11 19 6 10 1011.4 1010.6 0.0
17/02:30pm 31.6 26.4 -0.1 13 15.4 ENE 17 26 9 14 1011.9 1011.2 0.0
17/02:00pm 31.3 27.2 -0.4 13 15.3 NNE 11 20 6 11 1012.5 1011.7 0.0
17/01:30pm 31.5 27.5 0.8 14 15.1 ESE 11 22 6 12 1012.8 1012.0 0.0
17/01:00pm 31.3 27.5 -0.4 13 15.3 ESE 9 24 5 13 1013.2 1012.4 0.0
17/12:30pm 30.7 26.5 -0.8 13 15.0 NE 11 19 6 10 1013.7 1012.9 0.0
17/12:00pm 30.2 25.6 -1.2 13 14.8 SE 13 20 7 11 1014.2 1013.4 0.0
17/11:30am 29.2 24.5 -2.0 13 14.4 ESE 13 19 7 10 1014.8 1014.0 0.0
17/11:00am 28.9 25.7 -0.3 15 13.9 E 6 11 3 6 1015.2 1014.4 0.0
17/10:30am 26.5 22.7 -0.5 17 12.5 S 9 13 5 7 1015.4 1014.6 0.0
17/10:00am 25.2 21.0 -0.8 18 11.9 SSE 11 15 6 8 1015.4 1014.6 0.0
17/09:30am 23.7 19.5 -0.6 20 11.0 ESE 11 17 6 9 1015.4 1014.6 0.0
17/09:00am 21.6 18.3 0.2 24 9.7 SE 7 11 4 6 1015.0 1014.2 0.0
17/08:30am 18.7 15.3 -0.7 27 8.4 SE 7 9 4 5 1014.8 1014.0 0.0
17/08:00am 16.8 13.1 0.0 32 7.3 SSE 9 11 5 6 1014.4 1013.6 0.0
17/07:30am 15.3 11.9 -0.4 34 6.6 SE 7 7 4 4 1014.0 1013.2 0.0
17/07:00am 15.6 13.5 -0.6 33 6.9 CALM 0 0 0 0 1013.8 1013.0 0.0
17/06:30am 16.3 13.0 -1.3 30 7.4 SE 6 7 3 4 1013.6 1012.8 0.0
17/06:00am 18.4 14.6 -0.9 27 8.3 W 9 13 5 7 1013.4 1012.6 0.0
17/05:30am 18.4 14.3 -0.4 28 8.2 W 11 11 6 6 1013.2 1012.4 0.0
17/05:00am 18.1 13.9 -0.7 28 8.1 WNW 11 13 6 7 1013.2 1012.4 0.0
17/04:30am 18.0 13.8 -0.8 28 8.1 WNW 11 13 6 7 1013.2 1012.4 0.0
17/04:00am 17.7 13.6 -0.5 29 7.9 WSW 11 13 6 7 1013.2 1012.4 0.0
17/03:30am 16.8 12.3 -0.4 31 7.4 WSW 13 13 7 7 1013.4 1012.6 0.0
17/03:00am 16.7 13.3 -0.9 30 7.5 NW 7 9 4 5 1013.5 1012.7 0.0
17/02:30am 17.6 14.4 -0.6 29 7.8 ENE 6 9 3 5 1013.6 1012.8 0.0
17/02:00am 18.5 14.4 -0.3 28 8.2 ESE 11 13 6 7 1013.6 1012.8 0.0
17/01:30am 19.0 15.3 0.1 28 8.4 SE 9 9 5 5 1013.7 1012.9 0.0
17/01:00am 19.0 15.2 -0.9 26 8.6 ESE 9 11 5 6 1013.7 1012.9 0.0
17/12:30am 19.6 15.3 -1.5 24 9.1 SSW 11 15 6 8 1013.8 1013.0 0.0
17/12:00am 21.9 18.7 -0.8 22 10.1 NNW 6 9 3 5 1013.9 1013.1 0.0
 
Date/Time
CST
Temp
°C
App
Temp
°C
Dew
Point
°C
Rel
Hum
%
Delta-T
°C
Wind Press
QNH
hPa
Press
MSL
hPa
Rain since
9am
mm
Dir  Spd
km/h
Gust
km/h
Spd
kts
Gust
kts
16/11:30pm 21.4 16.9 -0.6 23 9.8 NNW 13 13 7 7 1013.8 1013.0 0.0
16/11:00pm 21.6 19.2 -0.4 23 9.9 NNW 2 9 1 5 1013.8 1013.0 0.0
16/10:30pm 21.8 18.3 -1.5 21 10.2 WNW 7 11 4 6 1013.7 1012.9 0.0
16/10:00pm 22.6 18.4 -0.8 21 10.5 NW 11 15 6 8 1013.6 1012.8 0.0
16/09:30pm 23.2 19.1 -0.3 21 10.7 W 11 13 6 7 1013.5 1012.7 0.0
16/09:00pm 23.4 19.2 -0.8 20 10.9 WSW 11 11 6 6 1013.3 1012.5 0.0

Other Formats:

Comma delimited format used in spreadsheet applications
http://www.bom.gov.au/fwo/IDD60801/IDD60801.94217.axf

JavaScript Object Notation format (JSON) in row-major order
http://www.bom.gov.au/fwo/IDD60801/IDD60801.94217.json